createdAt,value
2019-02-18T00:00:57.657Z,24.00
2019-02-18T00:03:24.740Z,26.67
2019-02-18T00:05:51.478Z,26.13
2019-02-18T00:08:18.201Z,29.33
2019-02-18T00:10:45.267Z,26.70
2019-02-18T00:13:25.127Z,24.70
2019-02-18T00:15:51.913Z,23.93
2019-02-18T00:18:18.639Z,26.37
2019-02-18T00:20:45.755Z,25.97
2019-02-18T00:23:12.533Z,27.73
2019-02-18T00:25:39.548Z,26.03
2019-02-18T00:28:06.281Z,23.60
2019-02-18T00:30:33.065Z,22.60
2019-02-18T00:32:59.803Z,26.83
2019-02-18T00:35:27.153Z,25.80
2019-02-18T00:37:54.462Z,27.80
2019-02-18T00:40:21.206Z,26.53
2019-02-18T00:42:47.833Z,33.03
2019-02-18T00:45:14.988Z,29.20
2019-02-18T00:47:41.708Z,27.27
2019-02-18T00:50:09.127Z,29.07
2019-02-18T00:52:36.017Z,28.10
2019-02-18T00:55:02.779Z,28.97
2019-02-18T00:57:29.757Z,31.47
2019-02-18T00:59:56.863Z,28.40
2019-02-18T01:02:23.587Z,29.53
2019-02-18T01:04:50.305Z,28.97
2019-02-18T01:07:16.997Z,26.67
2019-02-18T01:09:43.745Z,27.57
2019-02-18T01:12:10.727Z,28.60
2019-02-18T01:14:37.977Z,27.33
2019-02-18T01:17:04.733Z,26.10
2019-02-18T01:19:31.362Z,25.67
2019-02-18T01:21:58.434Z,27.23
2019-02-18T01:24:25.328Z,27.47
2019-02-18T01:26:52.517Z,29.87
2019-02-18T01:29:19.204Z,26.07
2019-02-18T01:31:45.831Z,26.33
2019-02-18T01:34:12.459Z,32.47
2019-02-18T01:36:39.240Z,28.00
2019-02-18T01:39:06.377Z,27.07
2019-02-18T01:41:33.096Z,30.90
2019-02-18T01:43:59.796Z,28.90
2019-02-18T01:46:26.418Z,29.40
2019-02-18T01:48:53.293Z,26.53
2019-02-18T01:51:20.416Z,30.00
2019-02-18T01:53:47.111Z,29.87
2019-02-18T01:56:13.844Z,28.30
2019-02-18T01:58:41.271Z,30.10
2019-02-18T02:01:08.102Z,28.70
2019-02-18T02:03:34.741Z,26.73
2019-02-18T02:06:01.611Z,26.93
2019-02-18T02:08:28.620Z,25.70
2019-02-18T02:10:55.437Z,26.13
2019-02-18T02:13:41.736Z,28.83
2019-02-18T02:16:21.373Z,29.83
2019-02-18T02:18:48.251Z,33.30
2019-02-18T02:21:14.968Z,30.30
2019-02-18T02:23:41.694Z,29.73
2019-02-18T02:26:08.598Z,32.23
2019-02-18T02:28:35.502Z,32.70
2019-02-18T02:31:02.281Z,25.93
2019-02-18T02:33:29.139Z,29.57
2019-02-18T02:35:55.862Z,27.20
2019-02-18T02:38:22.594Z,31.50
2019-02-18T02:40:49.441Z,28.67
2019-02-18T02:43:16.159Z,33.30
2019-02-18T02:45:42.781Z,32.77
2019-02-18T02:48:09.655Z,25.23
2019-02-18T02:50:36.990Z,27.70
2019-02-18T02:53:03.758Z,33.57
2019-02-18T02:55:30.544Z,27.80
2019-02-18T02:57:57.458Z,32.17
2019-02-18T03:00:24.097Z,30.70
2019-02-18T03:02:50.808Z,25.40
2019-02-18T03:05:17.617Z,28.03
2019-02-18T03:07:44.768Z,29.77
2019-02-18T03:10:11.553Z,27.07
2019-02-18T03:12:38.335Z,30.67
2019-02-18T03:15:05.255Z,29.83
2019-02-18T03:17:32.476Z,30.60
2019-02-18T03:19:59.520Z,29.97
2019-02-18T03:22:26.667Z,28.17
2019-02-18T03:25:14.210Z,29.93
2019-02-18T03:27:40.986Z,29.50
2019-02-18T03:30:46.944Z,27.97
2019-02-18T03:33:16.242Z,27.10
2019-02-18T03:35:42.976Z,30.33
2019-02-18T03:38:09.671Z,29.17
2019-02-18T03:40:36.505Z,28.53
2019-02-18T03:43:03.338Z,30.80
2019-02-18T03:45:30.426Z,32.63
2019-02-18T03:47:57.146Z,31.27
2019-02-18T03:50:24.116Z,28.93
2019-02-18T03:52:50.922Z,26.30
2019-02-18T03:55:17.563Z,29.30
2019-02-18T03:57:44.940Z,30.73
2019-02-18T04:00:52.768Z,34.70
2019-02-18T04:03:19.407Z,31.77
2019-02-18T04:05:46.193Z,30.30
2019-02-18T04:08:13.187Z,31.13
2019-02-18T04:10:40.170Z,31.37
2019-02-18T04:13:06.916Z,31.20
2019-02-18T04:15:33.795Z,31.03
2019-02-18T04:18:00.901Z,30.53
2019-02-18T04:20:27.645Z,28.97
2019-02-18T04:22:54.479Z,30.57
2019-02-18T04:25:21.604Z,32.90
2019-02-18T04:27:48.337Z,34.30
2019-02-18T04:30:15.368Z,37.50
2019-02-18T04:32:42.026Z,31.10
2019-02-18T04:35:09.180Z,33.37
2019-02-18T04:37:36.182Z,31.67
2019-02-18T04:40:03.037Z,29.93
2019-02-18T04:42:29.933Z,34.07
2019-02-18T04:44:57.152Z,32.70
2019-02-18T04:47:23.777Z,33.20
2019-02-18T04:49:50.509Z,34.03
2019-02-18T04:52:17.306Z,30.70
2019-02-18T04:54:43.924Z,35.27
2019-02-18T04:57:10.560Z,33.70
2019-02-18T04:59:37.333Z,31.87
2019-02-18T05:02:04.632Z,33.47
2019-02-18T05:04:56.361Z,32.37
2019-02-18T05:07:23.553Z,27.17
2019-02-18T05:09:50.202Z,32.27
2019-02-18T05:12:17.393Z,34.00
2019-02-18T05:14:44.409Z,36.77
2019-02-18T05:17:11.341Z,33.07
2019-02-18T05:19:38.087Z,32.33
2019-02-18T05:22:04.811Z,35.13
2019-02-18T05:24:31.826Z,31.30
2019-02-18T05:26:58.656Z,32.83
2019-02-18T05:29:25.290Z,33.93
2019-02-18T05:31:52.273Z,33.23
2019-02-18T05:34:19.075Z,34.13
2019-02-18T05:36:46.112Z,31.57
2019-02-18T05:39:18.178Z,31.00
2019-02-18T05:41:41.693Z,30.63
2019-02-18T05:44:08.571Z,32.97
2019-02-18T05:46:35.488Z,31.67
2019-02-18T05:49:02.179Z,31.27
2019-02-18T05:51:29.088Z,32.00
2019-02-18T05:53:55.762Z,29.60
2019-02-18T05:56:22.876Z,29.77
2019-02-18T05:58:50.020Z,32.00
2019-02-18T06:04:05.943Z,30.70
2019-02-18T06:06:32.667Z,33.53
2019-02-18T06:08:59.771Z,37.87
2019-02-18T06:11:26.812Z,33.17
2019-02-18T06:13:53.441Z,36.57
2019-02-18T06:16:20.420Z,32.17
2019-02-18T06:18:47.094Z,32.73
2019-02-18T06:21:26.555Z,29.63
2019-02-18T06:23:53.736Z,32.57
2019-02-18T06:26:20.352Z,31.53
2019-02-18T06:28:47.408Z,30.83
2019-02-18T06:31:14.179Z,30.20
2019-02-18T06:33:41.031Z,33.60
2019-02-18T06:36:07.697Z,31.43
2019-02-18T06:38:34.798Z,31.30
2019-02-18T06:41:01.522Z,32.67
2019-02-18T06:43:28.719Z,30.77
2019-02-18T06:46:15.162Z,29.13
2019-02-18T06:49:01.414Z,31.97
2019-02-18T06:51:28.536Z,28.50
2019-02-18T06:53:55.565Z,28.47
2019-02-18T06:59:22.762Z,32.13
2019-02-18T07:02:09.727Z,29.13
2019-02-18T07:04:56.253Z,31.03
2019-02-18T07:07:42.752Z,31.90
2019-02-18T07:10:29.216Z,36.80
2019-02-18T07:12:56.650Z,33.50
2019-02-18T07:15:23.391Z,36.03
2019-02-18T07:17:50.347Z,31.43
2019-02-18T07:20:17.284Z,33.67
2019-02-18T07:22:44.524Z,31.30
2019-02-18T07:25:11.440Z,31.03
2019-02-18T07:27:38.364Z,32.90
2019-02-18T07:30:07.691Z,33.20
2019-02-18T07:32:34.352Z,28.60
2019-02-18T07:35:00.992Z,31.07
2019-02-18T07:37:28.354Z,31.43
2019-02-18T07:40:01.801Z,30.13
2019-02-18T07:42:24.290Z,28.63
2019-02-18T07:44:51.357Z,30.20
2019-02-18T07:47:18.182Z,28.47
2019-02-18T07:50:05.036Z,26.03
2019-02-18T07:52:31.914Z,27.20
2019-02-18T07:54:58.539Z,28.97
2019-02-18T07:57:25.261Z,25.43
2019-02-18T07:59:52.092Z,27.60
2019-02-18T08:02:19.745Z,26.43
2019-02-18T08:04:46.474Z,26.63
2019-02-18T08:07:14.272Z,25.57
2019-02-18T08:09:41.415Z,27.67
2019-02-18T08:12:27.738Z,23.90
2019-02-18T08:14:54.460Z,26.03
2019-02-18T08:17:21.497Z,24.77
2019-02-18T08:19:48.421Z,25.70
2019-02-18T08:22:15.211Z,25.53
2019-02-18T08:24:55.566Z,22.90
2019-02-18T08:27:22.288Z,24.83
2019-02-18T08:29:48.901Z,26.67
2019-02-18T08:32:15.592Z,23.97
2019-02-18T08:34:42.482Z,22.60
2019-02-18T08:37:09.216Z,22.70
2019-02-18T08:39:36.297Z,25.50
2019-02-18T08:42:03.015Z,25.63
2019-02-18T08:44:29.882Z,24.03
2019-02-18T08:46:59.145Z,23.23
2019-02-18T08:49:25.881Z,26.03
2019-02-18T08:51:52.655Z,26.13
2019-02-18T08:54:19.726Z,26.60
2019-02-18T08:56:47.181Z,25.50
2019-02-18T08:59:13.964Z,24.63
2019-02-18T09:01:40.775Z,26.57
2019-02-18T09:04:08.343Z,25.63
2019-02-18T09:06:35.072Z,24.83
2019-02-18T09:09:02.012Z,23.77
2019-02-18T09:11:28.748Z,25.97
2019-02-18T09:13:55.486Z,23.80
2019-02-18T09:16:22.579Z,27.00
2019-02-18T09:18:49.315Z,23.80
2019-02-18T09:21:15.934Z,24.53
2019-02-18T09:26:23.001Z,25.20
2019-02-18T09:28:49.725Z,25.70
2019-02-18T09:34:05.367Z,23.07
2019-02-18T09:36:32.092Z,28.63
2019-02-18T09:38:58.855Z,24.57
2019-02-18T09:41:25.655Z,25.63
2019-02-18T09:43:52.284Z,23.50
2019-02-18T09:46:19.016Z,23.07
2019-02-18T09:48:46.388Z,22.30
2019-02-18T09:51:14.348Z,21.93
2019-02-18T09:53:41.070Z,23.87
2019-02-18T09:56:07.871Z,24.33
2019-02-18T09:58:34.611Z,22.63
2019-02-18T10:01:01.326Z,23.77
2019-02-18T10:03:31.893Z,24.97
2019-02-18T10:05:56.758Z,22.10
2019-02-18T10:08:23.481Z,20.70
2019-02-18T10:10:55.993Z,20.40
2019-02-18T10:13:18.890Z,20.13
2019-02-18T10:15:45.524Z,20.17
2019-02-18T10:18:12.289Z,21.00
2019-02-18T10:20:39.209Z,23.37
2019-02-18T10:23:05.966Z,23.60
2019-02-18T10:25:32.715Z,21.23
2019-02-18T10:28:12.087Z,18.67
2019-02-18T10:30:38.909Z,18.90
2019-02-18T10:33:05.849Z,20.40
2019-02-18T10:35:33.086Z,17.77
2019-02-18T10:37:59.870Z,19.63
2019-02-18T10:40:26.639Z,20.57
2019-02-18T10:42:53.997Z,20.93
2019-02-18T10:45:20.908Z,19.23
2019-02-18T10:47:47.529Z,17.57
2019-02-18T10:50:14.381Z,20.37
2019-02-18T10:52:41.333Z,20.07
2019-02-18T10:55:09.222Z,17.53
2019-02-18T10:57:38.315Z,21.17
2019-02-18T11:00:08.464Z,21.40
2019-02-18T11:02:35.577Z,18.93
2019-02-18T11:05:03.688Z,19.90
2019-02-18T11:07:31.324Z,21.87
2019-02-18T11:09:58.418Z,19.30
2019-02-18T11:12:25.533Z,18.43
2019-02-18T11:14:52.759Z,18.47
2019-02-18T11:17:20.466Z,19.50
2019-02-18T11:19:47.583Z,19.63
2019-02-18T11:22:15.106Z,23.47
2019-02-18T11:24:42.637Z,21.63
2019-02-18T11:27:10.082Z,20.50
2019-02-18T11:29:37.711Z,19.43
2019-02-18T11:32:04.919Z,19.30
2019-02-18T11:34:32.085Z,19.97
2019-02-18T11:36:59.285Z,19.60
2019-02-18T11:39:27.514Z,20.67
2019-02-18T11:41:55.222Z,21.03
2019-02-18T11:44:22.448Z,19.77
2019-02-18T11:47:10.875Z,17.60
2019-02-18T11:49:37.669Z,19.93
2019-02-18T11:52:04.883Z,19.50
2019-02-18T11:54:51.457Z,18.63
2019-02-18T11:57:18.678Z,19.73
2019-02-18T11:59:45.580Z,17.87
2019-02-18T12:02:14.272Z,18.00
2019-02-18T12:04:41.141Z,19.53
2019-02-18T12:07:07.895Z,19.13
2019-02-18T12:09:34.695Z,20.70
2019-02-18T12:12:21.273Z,19.53
2019-02-18T12:14:48.416Z,18.67
2019-02-18T12:17:20.533Z,17.43
2019-02-18T12:20:07.061Z,19.07
2019-02-18T12:22:34.631Z,17.67
2019-02-18T12:25:01.741Z,18.87
2019-02-18T12:27:29.325Z,18.47
2019-02-18T12:29:58.346Z,19.07
2019-02-18T12:32:25.520Z,16.40
2019-02-18T12:34:52.380Z,17.53
2019-02-18T12:37:19.374Z,17.33
2019-02-18T12:39:46.213Z,17.37
2019-02-18T12:42:13.286Z,17.47
2019-02-18T12:44:39.908Z,17.50
2019-02-18T12:47:08.551Z,16.27
2019-02-18T12:49:35.416Z,18.77
2019-02-18T12:52:02.280Z,16.93
2019-02-18T12:54:29.044Z,18.20
2019-02-18T12:56:55.893Z,17.40
2019-02-18T12:59:22.813Z,19.73
2019-02-18T13:01:49.549Z,18.33
2019-02-18T13:04:16.231Z,18.50
2019-02-18T13:06:42.955Z,16.67
2019-02-18T13:09:10.268Z,16.97
2019-02-18T13:11:37.362Z,18.87
2019-02-18T13:14:04.097Z,18.73
2019-02-18T13:16:31.253Z,18.53
2019-02-18T13:18:58.155Z,18.10
2019-02-18T13:21:25.166Z,18.67
2019-02-18T13:23:52.640Z,17.40
2019-02-18T13:26:19.517Z,20.17
2019-02-18T13:28:46.246Z,18.50
2019-02-18T13:31:13.280Z,18.07
2019-02-18T13:33:52.443Z,16.73
2019-02-18T13:36:19.167Z,20.60
2019-02-18T13:38:45.891Z,20.77
2019-02-18T13:41:13.469Z,18.27
2019-02-18T13:43:40.103Z,20.03
2019-02-18T13:46:07.133Z,16.03
2019-02-18T13:48:34.097Z,20.03
2019-02-18T13:51:00.825Z,17.57
2019-02-18T13:53:27.557Z,19.30
2019-02-18T13:55:54.709Z,22.67
2019-02-18T13:58:21.540Z,39.97
2019-02-18T14:00:48.174Z,29.83
2019-02-18T14:03:14.862Z,19.00
2019-02-18T14:05:41.833Z,21.87
2019-02-18T14:08:08.462Z,26.33
2019-02-18T14:10:35.279Z,29.73
2019-02-18T14:13:01.998Z,19.37
2019-02-18T14:15:28.740Z,19.60
2019-02-18T14:17:55.871Z,18.33
2019-02-18T14:20:22.619Z,19.73
2019-02-18T14:22:49.737Z,20.83
2019-02-18T14:25:16.948Z,21.67
2019-02-18T14:27:44.210Z,24.03
2019-02-18T14:30:12.338Z,27.20
2019-02-18T14:32:39.536Z,18.97
2019-02-18T14:35:18.886Z,18.33
2019-02-18T14:37:46.312Z,19.23
2019-02-18T14:40:34.551Z,18.37
2019-02-18T14:43:01.676Z,17.10
2019-02-18T14:45:28.956Z,20.13
2019-02-18T14:47:55.931Z,19.47
2019-02-18T14:50:22.771Z,20.13
2019-02-18T14:52:50.391Z,18.60
2019-02-18T14:55:17.643Z,19.57
2019-02-18T14:58:04.067Z,15.93
2019-02-18T15:00:30.833Z,13.63
2019-02-18T15:02:57.604Z,15.90
2019-02-18T15:05:25.436Z,17.00
2019-02-18T15:07:52.450Z,14.13
2019-02-18T15:10:19.455Z,16.03
2019-02-18T15:12:46.235Z,18.87
2019-02-18T15:15:13.249Z,28.73
2019-02-18T15:17:40.117Z,16.63
2019-02-18T15:20:07.140Z,25.07
2019-02-18T15:22:35.766Z,37.50
2019-02-18T15:25:02.608Z,25.13
2019-02-18T15:27:29.389Z,21.77
2019-02-18T15:29:56.152Z,20.03
2019-02-18T15:32:22.868Z,19.87
2019-02-18T15:34:50.131Z,16.87
2019-02-18T15:37:29.649Z,87.50
2019-02-18T15:39:56.830Z,43.77
2019-02-18T15:42:23.549Z,68.70
2019-02-18T15:44:50.265Z,57.90
2019-02-18T15:47:17.181Z,26.73
2019-02-18T15:49:44.100Z,25.80
2019-02-18T15:52:11.452Z,18.70
2019-02-18T15:54:38.237Z,15.13
2019-02-18T15:57:05.161Z,17.57
2019-02-18T15:59:31.942Z,16.10
2019-02-18T16:01:58.755Z,15.87
2019-02-18T16:04:25.612Z,16.03
2019-02-18T16:06:52.542Z,16.27
2019-02-18T16:09:19.480Z,18.87
2019-02-18T16:11:46.691Z,18.13
2019-02-18T16:14:13.874Z,14.77
2019-02-18T16:16:40.798Z,15.30
2019-02-18T16:19:07.608Z,13.50
2019-02-18T16:21:34.508Z,15.10
2019-02-18T16:24:01.195Z,14.37
2019-02-18T16:26:27.949Z,14.17
2019-02-18T16:28:54.979Z,16.63
2019-02-18T16:31:21.771Z,14.27
2019-02-18T16:33:49.815Z,14.73
2019-02-18T16:36:16.856Z,17.27
2019-02-18T16:38:43.862Z,15.57
2019-02-18T16:41:11.066Z,24.17
2019-02-18T16:43:39.776Z,22.10
2019-02-18T16:46:06.628Z,24.73
2019-02-18T16:48:33.570Z,23.53
2019-02-18T16:51:00.472Z,23.57
2019-02-18T16:53:27.150Z,22.50
2019-02-18T16:55:54.111Z,26.50
2019-02-18T16:58:20.834Z,22.80
2019-02-18T17:00:47.896Z,22.53
2019-02-18T17:03:15.011Z,23.20
2019-02-18T17:05:41.993Z,20.47
2019-02-18T17:08:11.398Z,20.27
2019-02-18T17:10:39.454Z,19.37
2019-02-18T17:13:08.410Z,19.07
2019-02-18T17:15:35.594Z,17.47
2019-02-18T17:18:02.321Z,18.17
2019-02-18T17:20:29.570Z,21.83
2019-02-18T17:22:56.437Z,20.57
2019-02-18T17:25:25.347Z,20.70
2019-02-18T17:27:52.191Z,26.53
2019-02-18T17:30:19.241Z,25.87
2019-02-18T17:32:45.984Z,32.93
2019-02-18T17:35:12.742Z,31.03
2019-02-18T17:37:39.541Z,31.33
2019-02-18T17:40:08.126Z,36.20
2019-02-18T17:42:54.821Z,35.77
2019-02-18T17:45:21.896Z,35.33
2019-02-18T17:47:48.997Z,36.37
2019-02-18T17:50:16.436Z,34.63
2019-02-18T17:52:44.408Z,37.07
2019-02-18T17:55:11.928Z,34.50
2019-02-18T17:57:39.364Z,33.37
2019-02-18T18:00:09.200Z,31.03
2019-02-18T18:02:36.750Z,32.67
2019-02-18T18:05:44.724Z,30.03
2019-02-18T18:08:11.525Z,30.97
2019-02-18T18:10:38.578Z,30.10
2019-02-18T18:13:05.651Z,28.73
2019-02-18T18:15:32.276Z,27.73
2019-02-18T18:17:59.567Z,27.77
2019-02-18T18:20:26.427Z,27.73
2019-02-18T18:22:55.347Z,31.80
2019-02-18T18:25:22.437Z,32.67
2019-02-18T18:27:51.015Z,31.07
2019-02-18T18:30:17.971Z,29.77
2019-02-18T18:32:45.319Z,33.13
2019-02-18T18:35:13.519Z,29.53
2019-02-18T18:37:41.391Z,31.47
2019-02-18T18:40:10.031Z,33.63
2019-02-18T18:42:56.395Z,31.77
2019-02-18T18:45:23.208Z,31.47
2019-02-18T18:48:09.581Z,29.53
2019-02-18T18:50:36.308Z,31.30
2019-02-18T18:53:03.423Z,34.40
2019-02-18T18:55:30.313Z,31.20
2019-02-18T18:57:57.190Z,28.43
2019-02-18T19:00:43.856Z,30.57
2019-02-18T19:03:10.589Z,30.40
2019-02-18T19:05:37.689Z,33.70
2019-02-18T19:08:04.774Z,32.27
2019-02-18T19:10:51.378Z,30.00
2019-02-18T19:13:18.819Z,32.17
2019-02-18T19:15:49.632Z,34.07
2019-02-18T19:18:14.626Z,35.33
2019-02-18T19:21:01.018Z,37.60
2019-02-18T19:23:27.769Z,36.23
2019-02-18T19:25:54.807Z,42.13
2019-02-18T19:28:41.246Z,43.90
2019-02-18T19:31:08.658Z,42.27
2019-02-18T19:33:54.966Z,42.77
2019-02-18T19:36:22.151Z,43.67
2019-02-18T19:38:49.280Z,43.47
2019-02-18T19:41:16.467Z,37.50
2019-02-18T19:43:56.785Z,40.60
2019-02-18T19:46:24.245Z,35.23
2019-02-18T19:48:51.341Z,40.30
2019-02-18T19:51:18.118Z,35.30
2019-02-18T19:53:44.918Z,39.07
2019-02-18T19:56:12.650Z,38.63
2019-02-18T19:58:39.492Z,40.17
2019-02-18T20:01:06.845Z,36.60
2019-02-18T20:03:33.894Z,37.37
2019-02-18T20:06:01.222Z,35.30
2019-02-18T20:08:28.028Z,36.23
2019-02-18T20:10:55.099Z,36.13
2019-02-18T20:13:21.856Z,38.40
2019-02-18T20:15:48.659Z,35.03
2019-02-18T20:18:15.704Z,34.30
2019-02-18T20:20:42.565Z,35.77
2019-02-18T20:23:11.834Z,33.20
2019-02-18T20:25:39.265Z,34.13
2019-02-18T20:28:06.204Z,32.47
2019-02-18T20:30:33.282Z,28.00
2019-02-18T20:33:00.126Z,31.57
2019-02-18T20:35:27.258Z,31.03
2019-02-18T20:37:54.894Z,32.37
2019-02-18T20:40:22.103Z,36.57
2019-02-18T20:42:48.916Z,32.13
2019-02-18T20:45:28.752Z,29.90
2019-02-18T20:47:55.909Z,28.87
2019-02-18T20:50:23.362Z,36.07
2019-02-18T20:52:50.723Z,34.40
2019-02-18T20:55:19.203Z,31.93
2019-02-18T20:57:46.422Z,34.57
2019-02-18T21:00:15.997Z,32.50
2019-02-18T21:02:44.067Z,32.73
2019-02-18T21:05:11.190Z,31.47
2019-02-18T21:07:38.374Z,34.27
2019-02-18T21:10:05.743Z,35.03
2019-02-18T21:12:32.907Z,34.80
2019-02-18T21:15:19.997Z,39.23
2019-02-18T21:17:47.559Z,34.87
2019-02-18T21:20:14.807Z,32.37
2019-02-18T21:22:42.353Z,33.37
2019-02-18T21:25:09.588Z,33.00
2019-02-18T21:27:44.076Z,29.77
2019-02-18T21:30:11.273Z,33.33
2019-02-18T21:32:39.988Z,32.23
2019-02-18T21:35:07.207Z,32.37
2019-02-18T21:37:33.874Z,28.10
2019-02-18T21:40:01.046Z,28.60
2019-02-18T21:42:27.764Z,30.50
2019-02-18T21:44:55.021Z,34.57
2019-02-18T21:47:22.207Z,32.37
2019-02-18T21:50:11.040Z,30.37
2019-02-18T21:52:38.107Z,32.90
2019-02-18T21:55:46.367Z,35.77
2019-02-18T21:58:14.704Z,35.97
2019-02-18T22:00:41.940Z,30.53
2019-02-18T22:03:08.659Z,28.63
2019-02-18T22:05:35.327Z,32.33
2019-02-18T22:08:21.759Z,34.00
2019-02-18T22:10:48.521Z,34.27
2019-02-18T22:13:17.183Z,31.60
2019-02-18T22:15:44.409Z,34.60
2019-02-18T22:18:11.331Z,33.77
2019-02-18T22:20:38.503Z,32.23
2019-02-18T22:23:05.638Z,32.97
2019-02-18T22:25:32.617Z,30.10
2019-02-18T22:27:59.659Z,34.87
2019-02-18T22:30:26.800Z,27.67
2019-02-18T22:32:55.469Z,30.70
2019-02-18T22:35:22.235Z,28.20
2019-02-18T22:37:48.957Z,30.83
2019-02-18T22:40:15.716Z,27.50
2019-02-18T22:43:02.154Z,27.80
2019-02-18T22:45:29.555Z,29.13
2019-02-18T22:47:57.417Z,30.50
2019-02-18T22:50:43.877Z,32.73
2019-02-18T22:53:10.959Z,29.53
2019-02-18T22:55:38.123Z,31.10
2019-02-18T22:58:05.125Z,29.30
2019-02-18T23:01:17.064Z,33.83
2019-02-18T23:03:44.308Z,31.67
2019-02-18T23:06:11.103Z,31.17
2019-02-18T23:08:39.767Z,32.77
2019-02-18T23:11:06.721Z,31.07
2019-02-18T23:13:33.606Z,32.20
2019-02-18T23:16:00.354Z,30.90
2019-02-18T23:18:27.295Z,33.63
2019-02-18T23:20:54.289Z,30.17
2019-02-18T23:24:02.452Z,31.93
2019-02-18T23:26:29.121Z,28.50
2019-02-18T23:28:55.866Z,27.57
2019-02-18T23:31:22.671Z,29.53
2019-02-18T23:33:49.602Z,28.30
2019-02-18T23:36:16.369Z,31.13
2019-02-18T23:38:43.258Z,28.77
2019-02-18T23:41:29.929Z,28.00
2019-02-18T23:43:56.748Z,27.03
2019-02-18T23:46:23.814Z,28.13
2019-02-18T23:49:03.070Z,28.47
2019-02-18T23:51:29.851Z,28.40
2019-02-18T23:53:56.999Z,31.53
2019-02-18T23:56:43.845Z,30.50
2019-02-18T23:59:10.625Z,28.43
